OTBD/DOH METAR and TAF weather

Enter ICAO airport designator
Station Type Date Time Source
OTBD METAR 2018/12/10 12:30 UTC NOAA

OTBD 101230Z 04007KT 350V060 CAVOK 25/14 Q1014 NOSIG


Station Type Date Time Source
OTBD Decoded METAR 2018/12/10 12:30 UTC NOAA

Doha International Airport, Qatar (OTBD) 25-15N 051-34E 10M
Dec 10, 2018 - 07:30 AM EST / 2018.12.10 1230 UTC
Wind: from the NE (040 degrees) at 8 MPH (7 KT) (direction variable):0
Visibility: greater than 7 mile(s):0
Temperature: 77 F (25 C)
Dew Point: 57 F (14 C)
Relative Humidity: 50%
Pressure (altimeter): 29.94 in. Hg (1014 hPa)
ob: OTBD 101230Z 04007KT 350V060 CAVOK 25/14 Q1014 NOSIG
cycle: 12

Station Type Date Time Source
OTBD TAF 2018/12/10 12:59 UTC NOAA

TAF OTBD 101053Z 1012/1118 03008KT 9000 NSC
BECMG 1021/1023 33005KT
BECMG 1103/1105 02015KT


Example: see airport list